createdAt,value
2023-04-16T00:01:02.672Z,79.62
2023-04-16T00:04:06.153Z,79.37
2023-04-16T00:07:09.376Z,80.14
2023-04-16T00:10:12.273Z,80.54
2023-04-16T00:13:15.275Z,81.26
2023-04-16T00:16:18.546Z,81.08
2023-04-16T00:19:22.457Z,81.29
2023-04-16T00:22:25.046Z,81.26
2023-04-16T00:25:27.823Z,81.07
2023-04-16T00:28:30.637Z,80.75
2023-04-16T00:31:34.484Z,81.09
2023-04-16T00:34:39.076Z,81.12
2023-04-16T00:37:41.765Z,80.67
2023-04-16T00:40:45.727Z,80.33
2023-04-16T00:43:48.205Z,80.23
2023-04-16T00:46:51.664Z,80.42
2023-04-16T00:49:54.657Z,79.83
2023-04-16T00:52:57.550Z,80.97
2023-04-16T00:56:02.518Z,81.17
2023-04-16T00:59:06.256Z,81.61
2023-04-16T01:02:09.107Z,81.46
2023-04-16T01:05:11.833Z,81.21
2023-04-16T01:08:22.097Z,80.64
2023-04-16T01:11:25.004Z,80.17
2023-04-16T01:14:27.983Z,80.00
2023-04-16T01:17:30.545Z,79.95
2023-04-16T01:20:36.379Z,79.39
2023-04-16T01:23:39.304Z,79.31
2023-04-16T01:26:42.060Z,79.80
2023-04-16T01:29:44.845Z,80.21
2023-04-16T01:32:48.257Z,80.33
2023-04-16T01:35:51.254Z,81.47
2023-04-16T01:38:54.058Z,80.83
2023-04-16T01:41:57.224Z,81.30
2023-04-16T01:44:59.825Z,81.40
2023-04-16T01:48:03.961Z,81.53
2023-04-16T01:51:06.862Z,81.51
2023-04-16T01:54:09.829Z,81.51
2023-04-16T01:57:12.456Z,81.86
2023-04-16T02:00:15.554Z,81.68
2023-04-16T02:03:24.932Z,81.89
2023-04-16T02:06:28.647Z,82.00
2023-04-16T02:09:35.497Z,82.19
2023-04-16T02:12:40.820Z,82.30
2023-04-16T02:15:47.970Z,81.98
2023-04-16T02:18:53.307Z,81.66
2023-04-16T02:21:58.495Z,82.02
2023-04-16T02:25:01.207Z,82.09
2023-04-16T02:28:03.821Z,82.02
2023-04-16T02:31:11.544Z,82.02
2023-04-16T02:34:19.243Z,82.13
2023-04-16T02:37:21.862Z,81.82
2023-04-16T02:40:24.663Z,82.45
2023-04-16T02:43:27.166Z,82.41
2023-04-16T02:46:31.724Z,81.84
2023-04-16T02:49:35.881Z,82.09
2023-04-16T02:52:38.504Z,82.16
2023-04-16T02:55:41.386Z,82.00
2023-04-16T02:58:43.907Z,82.18
2023-04-16T03:01:46.889Z,81.57
2023-04-16T03:04:50.038Z,82.23
2023-04-16T03:07:56.709Z,82.33
2023-04-16T03:11:01.675Z,82.41
2023-04-16T03:14:04.487Z,82.61
2023-04-16T03:17:07.224Z,82.72
2023-04-16T03:20:10.371Z,82.51
2023-04-16T03:23:14.176Z,82.80
2023-04-16T03:26:16.905Z,82.96
2023-04-16T03:29:19.595Z,83.20
2023-04-16T03:32:23.596Z,82.75
2023-04-16T03:35:26.247Z,82.41
2023-04-16T03:38:28.858Z,82.33
2023-04-16T03:41:33.653Z,81.75
2023-04-16T03:44:36.682Z,81.32
2023-04-16T03:47:39.301Z,81.42
2023-04-16T03:50:46.238Z,80.78
2023-04-16T03:53:51.105Z,80.35
2023-04-16T03:56:54.548Z,80.17
2023-04-16T03:59:57.094Z,79.84
2023-04-16T04:03:02.664Z,79.91
2023-04-16T04:06:09.429Z,79.75
2023-04-16T04:09:13.043Z,79.94
2023-04-16T04:12:16.008Z,79.37
2023-04-16T04:15:19.750Z,79.51
2023-04-16T04:18:23.093Z,79.37
2023-04-16T04:21:26.010Z,79.37
2023-04-16T04:24:28.797Z,79.45
2023-04-16T04:27:31.758Z,78.04
2023-04-16T04:30:35.916Z,77.98
2023-04-16T04:33:38.533Z,78.33
2023-04-16T04:36:42.256Z,77.98
2023-04-16T04:39:45.310Z,78.27
2023-04-16T04:42:49.295Z,78.23
2023-04-16T04:45:52.094Z,78.41
2023-04-16T04:48:54.959Z,78.60
2023-04-16T04:51:57.752Z,78.75
2023-04-16T04:55:00.774Z,78.77
2023-04-16T04:58:06.455Z,78.29
2023-04-16T05:01:09.397Z,77.56
2023-04-16T05:04:13.116Z,76.38
2023-04-16T05:07:16.354Z,76.12
2023-04-16T05:10:19.360Z,75.44
2023-04-16T05:13:22.193Z,74.70
2023-04-16T05:16:24.826Z,74.85
2023-04-16T05:19:27.685Z,75.13
2023-04-16T05:22:30.221Z,75.87
2023-04-16T05:25:32.891Z,75.70
2023-04-16T05:28:35.677Z,75.56
2023-04-16T05:31:39.634Z,75.11
2023-04-16T05:34:42.197Z,75.25
2023-04-16T05:37:44.673Z,74.61
2023-04-16T05:40:47.396Z,73.66
2023-04-16T05:43:50.067Z,73.42
2023-04-16T05:46:52.919Z,73.39
2023-04-16T05:49:55.810Z,73.58
2023-04-16T05:52:58.561Z,73.49
2023-04-16T05:56:01.097Z,73.29
2023-04-16T05:59:04.599Z,73.16
2023-04-16T06:02:07.559Z,72.85
2023-04-16T06:05:10.152Z,73.08
2023-04-16T06:08:12.873Z,72.64
2023-04-16T06:11:15.510Z,72.50
2023-04-16T06:14:18.203Z,71.73
2023-04-16T06:17:21.395Z,71.08
2023-04-16T06:20:24.470Z,70.82
2023-04-16T06:23:27.070Z,70.14
2023-04-16T06:26:29.728Z,69.17
2023-04-16T06:29:40.642Z,68.09
2023-04-16T06:32:44.757Z,68.01
2023-04-16T06:35:47.423Z,67.54
2023-04-16T06:38:50.086Z,66.87
2023-04-16T06:41:52.882Z,67.96
2023-04-16T06:44:55.526Z,67.10
2023-04-16T06:48:04.334Z,66.20
2023-04-16T06:51:07.423Z,65.38
2023-04-16T06:54:10.510Z,64.68
2023-04-16T06:57:13.022Z,65.26
2023-04-16T07:00:15.949Z,64.30
2023-04-16T07:03:18.643Z,63.79
2023-04-16T07:06:21.399Z,63.83
2023-04-16T07:09:24.026Z,62.93
2023-04-16T07:12:27.287Z,61.94
2023-04-16T07:15:30.079Z,61.72
2023-04-16T07:18:33.101Z,61.28
2023-04-16T07:21:36.458Z,60.97
2023-04-16T07:24:39.525Z,60.66
2023-04-16T07:27:44.465Z,60.24
2023-04-16T07:30:47.511Z,60.09
2023-04-16T07:33:50.524Z,59.35
2023-04-16T07:36:53.146Z,59.31
2023-04-16T07:39:57.770Z,59.39
2023-04-16T07:43:00.539Z,58.84
2023-04-16T07:46:04.272Z,58.43
2023-04-16T07:49:07.236Z,58.87
2023-04-16T07:52:09.906Z,58.57
2023-04-16T07:55:13.707Z,58.81
2023-04-16T07:58:16.322Z,59.21
2023-04-16T08:01:18.958Z,58.83
2023-04-16T08:04:25.734Z,57.43
2023-04-16T08:07:28.818Z,57.21
2023-04-16T08:10:31.593Z,55.32
2023-04-16T08:13:34.212Z,53.75
2023-04-16T08:16:37.037Z,53.03
2023-04-16T08:19:40.051Z,52.36
2023-04-16T08:22:43.208Z,51.65
2023-04-16T08:25:46.095Z,50.86
2023-04-16T08:28:49.648Z,50.80
2023-04-16T08:31:53.811Z,50.32
2023-04-16T08:34:57.309Z,50.65
2023-04-16T08:38:02.410Z,50.92
2023-04-16T08:41:09.550Z,50.99
2023-04-16T08:44:20.510Z,50.60
2023-04-16T08:47:25.689Z,50.95
2023-04-16T08:50:29.924Z,50.64
2023-04-16T08:53:54.651Z,49.91
2023-04-16T08:56:59.150Z,48.82
2023-04-16T09:00:02.625Z,47.92
2023-04-16T09:03:06.928Z,47.16
2023-04-16T09:06:10.073Z,46.58
2023-04-16T09:09:14.004Z,47.19
2023-04-16T09:12:17.590Z,48.22
2023-04-16T09:15:22.162Z,49.38
2023-04-16T09:18:24.849Z,50.38
2023-04-16T09:21:28.108Z,51.04
2023-04-16T09:24:31.411Z,52.43
2023-04-16T09:27:34.104Z,52.37
2023-04-16T09:30:37.643Z,52.90
2023-04-16T09:33:41.186Z,53.59
2023-04-16T09:36:43.798Z,54.02
2023-04-16T09:39:56.866Z,54.01
2023-04-16T09:43:00.893Z,54.47
2023-04-16T09:46:08.108Z,53.97
2023-04-16T09:49:15.592Z,53.80
2023-04-16T09:52:23.192Z,52.41
2023-04-16T09:55:27.808Z,50.79
2023-04-16T09:58:30.869Z,49.18
2023-04-16T10:01:34.046Z,47.42
2023-04-16T10:04:53.093Z,45.45
2023-04-16T10:08:00.600Z,42.87
2023-04-16T10:11:03.285Z,40.61
2023-04-16T10:14:06.332Z,37.32
2023-04-16T10:17:10.047Z,33.63
2023-04-16T10:20:14.226Z,32.03
2023-04-16T10:23:20.124Z,31.87
2023-04-16T10:26:22.881Z,30.20
2023-04-16T10:29:27.488Z,29.07
2023-04-16T10:32:32.041Z,27.76
2023-04-16T10:35:40.734Z,26.94
2023-04-16T10:38:48.358Z,26.24
2023-04-16T10:42:06.332Z,25.34
2023-04-16T10:45:11.274Z,26.18
2023-04-16T10:48:17.178Z,25.56
2023-04-16T10:51:36.658Z,23.46
2023-04-16T10:54:40.938Z,25.24
2023-04-16T10:57:43.902Z,25.00
2023-04-16T11:00:53.474Z,23.09
2023-04-16T11:03:56.561Z,19.85
2023-04-16T11:07:17.990Z,16.99
2023-04-16T11:10:20.734Z,16.54
2023-04-16T11:13:23.864Z,16.29
2023-04-16T11:16:26.732Z,16.77
2023-04-16T11:19:29.518Z,17.40
2023-04-16T11:22:36.712Z,20.00
2023-04-16T11:25:39.396Z,21.97
2023-04-16T11:28:41.962Z,24.08
2023-04-16T11:31:55.378Z,25.59
2023-04-16T11:34:59.942Z,27.30
2023-04-16T11:38:02.603Z,27.08
2023-04-16T11:41:05.218Z,28.16
2023-04-16T11:44:25.531Z,29.61
2023-04-16T11:47:30.843Z,30.64
2023-04-16T11:50:33.804Z,31.51
2023-04-16T11:53:37.082Z,32.63
2023-04-16T11:56:46.834Z,32.93
2023-04-16T12:00:01.361Z,32.45
2023-04-16T12:03:15.628Z,32.55
2023-04-16T12:06:18.488Z,32.40
2023-04-16T12:09:25.461Z,31.61
2023-04-16T12:12:31.456Z,29.42
2023-04-16T12:15:46.041Z,28.90
2023-04-16T12:19:01.283Z,26.38
2023-04-16T12:22:04.051Z,26.29
2023-04-16T12:25:17.753Z,28.14
2023-04-16T12:28:38.598Z,29.48
2023-04-16T12:31:41.601Z,29.92
2023-04-16T12:34:51.582Z,30.58
2023-04-16T12:37:54.047Z,31.67
2023-04-16T12:40:57.749Z,33.05
2023-04-16T12:44:05.185Z,33.33
2023-04-16T12:47:07.855Z,32.82
2023-04-16T12:50:10.966Z,31.98
2023-04-16T12:53:13.919Z,29.92
2023-04-16T12:56:16.860Z,27.17
2023-04-16T12:59:19.504Z,23.22
2023-04-16T13:02:23.025Z,21.82
2023-04-16T13:05:25.835Z,22.60
2023-04-16T13:08:29.210Z,24.03
2023-04-16T13:11:32.481Z,24.94
2023-04-16T13:14:35.318Z,26.75
2023-04-16T13:17:38.270Z,28.49
2023-04-16T13:20:41.325Z,28.45
2023-04-16T13:23:44.108Z,29.22
2023-04-16T13:26:46.860Z,27.46
2023-04-16T13:29:50.000Z,27.30
2023-04-16T13:32:56.457Z,27.31
2023-04-16T13:35:59.170Z,27.97
2023-04-16T13:39:05.071Z,28.18
2023-04-16T13:42:09.205Z,27.51
2023-04-16T13:45:12.197Z,26.32
2023-04-16T13:48:15.184Z,24.69
2023-04-16T13:51:17.968Z,25.27
2023-04-16T13:54:20.593Z,26.15
2023-04-16T13:57:23.509Z,26.30
2023-04-16T14:00:27.334Z,26.54
2023-04-16T14:03:29.975Z,27.13
2023-04-16T14:06:33.801Z,27.08
2023-04-16T14:09:36.973Z,29.96
2023-04-16T14:12:40.159Z,31.80
2023-04-16T14:15:43.519Z,32.37
2023-04-16T14:18:47.777Z,33.56
2023-04-16T14:21:50.621Z,34.54
2023-04-16T14:24:55.602Z,35.05
2023-04-16T14:28:01.626Z,34.94
2023-04-16T14:31:04.993Z,35.00
2023-04-16T14:34:07.756Z,35.06
2023-04-16T14:37:10.365Z,35.99
2023-04-16T14:40:13.300Z,35.87
2023-04-16T14:43:16.115Z,35.78
2023-04-16T14:46:19.437Z,35.02
2023-04-16T14:49:22.959Z,35.31
2023-04-16T14:52:26.218Z,34.72
2023-04-16T14:55:28.769Z,34.87
2023-04-16T14:58:31.637Z,34.96
2023-04-16T15:01:36.028Z,34.45
2023-04-16T15:04:38.778Z,33.29
2023-04-16T15:07:41.936Z,33.36
2023-04-16T15:10:47.256Z,32.73
2023-04-16T15:13:50.778Z,33.29
2023-04-16T15:16:54.144Z,32.47
2023-04-16T15:19:56.901Z,33.26
2023-04-16T15:22:59.726Z,32.89
2023-04-16T15:26:02.416Z,32.65
2023-04-16T15:29:05.489Z,33.14
2023-04-16T15:32:08.752Z,32.88
2023-04-16T15:35:13.958Z,32.94
2023-04-16T15:38:16.988Z,32.77
2023-04-16T15:41:19.795Z,32.67
2023-04-16T15:44:24.531Z,32.33
2023-04-16T15:47:28.094Z,32.64
2023-04-16T15:50:32.716Z,32.88
2023-04-16T15:53:36.286Z,33.65
2023-04-16T15:56:40.023Z,34.54
2023-04-16T15:59:46.196Z,35.00
2023-04-16T16:02:58.142Z,35.60
2023-04-16T16:06:04.167Z,36.03
2023-04-16T16:09:08.520Z,36.21
2023-04-16T16:12:11.341Z,37.00
2023-04-16T16:15:15.745Z,36.61
2023-04-16T16:18:19.294Z,37.01
2023-04-16T16:21:22.591Z,37.48
2023-04-16T16:24:26.559Z,37.98
2023-04-16T16:27:30.004Z,38.65
2023-04-16T16:30:33.140Z,38.91
2023-04-16T16:33:38.428Z,39.15
2023-04-16T16:36:42.837Z,39.43
2023-04-16T16:39:46.118Z,39.35
2023-04-16T16:42:49.931Z,39.18
2023-04-16T16:45:53.278Z,39.34
2023-04-16T16:48:57.105Z,40.02
2023-04-16T16:52:00.517Z,40.11
2023-04-16T16:55:05.981Z,40.88
2023-04-16T16:58:10.305Z,40.46
2023-04-16T17:01:13.657Z,41.05
2023-04-16T17:04:20.012Z,41.28
2023-04-16T17:07:25.434Z,41.13
2023-04-16T17:10:30.281Z,42.07
2023-04-16T17:13:35.124Z,42.17
2023-04-16T17:16:39.619Z,42.14
2023-04-16T17:19:43.204Z,42.75
2023-04-16T17:22:46.548Z,42.37
2023-04-16T17:25:49.829Z,42.81
2023-04-16T17:28:54.681Z,42.93
2023-04-16T17:31:58.551Z,43.46
2023-04-16T17:35:04.614Z,43.97
2023-04-16T17:38:08.214Z,44.09
2023-04-16T17:41:12.119Z,45.48
2023-04-16T17:44:16.360Z,43.57
2023-04-16T17:47:20.510Z,44.49
2023-04-16T17:50:24.046Z,44.29
2023-04-16T17:53:27.518Z,44.56
2023-04-16T17:56:36.167Z,45.27
2023-04-16T17:59:39.466Z,44.92
2023-04-16T18:02:46.916Z,45.08
2023-04-16T18:05:50.319Z,45.75
2023-04-16T18:08:54.032Z,46.18
2023-04-16T18:11:57.576Z,46.40
2023-04-16T18:15:01.420Z,46.85
2023-04-16T18:18:06.643Z,46.82
2023-04-16T18:21:10.533Z,47.92
2023-04-16T18:24:14.297Z,47.78
2023-04-16T18:27:18.067Z,48.56
2023-04-16T18:30:26.371Z,48.97
2023-04-16T18:36:37.252Z,49.61
2023-04-16T18:39:40.086Z,49.78
2023-04-16T18:42:43.534Z,49.79
2023-04-16T18:45:46.812Z,50.42
2023-04-16T18:48:49.881Z,50.00
2023-04-16T18:51:56.584Z,50.30
2023-04-16T18:54:59.849Z,50.51
2023-04-16T18:58:04.047Z,50.28
2023-04-16T19:01:11.391Z,50.42
2023-04-16T19:04:18.505Z,50.40
2023-04-16T19:07:22.388Z,50.22
2023-04-16T19:10:26.295Z,50.11
2023-04-16T19:13:33.103Z,50.05
2023-04-16T19:16:36.554Z,49.79
2023-04-16T19:19:40.597Z,49.70
2023-04-16T19:22:44.339Z,49.95
2023-04-16T19:25:54.099Z,50.22
2023-04-16T19:28:57.908Z,50.22
2023-04-16T19:32:03.114Z,50.27
2023-04-16T19:35:08.398Z,50.45
2023-04-16T19:38:11.833Z,50.44
2023-04-16T19:41:15.434Z,51.45
2023-04-16T19:44:20.046Z,51.15
2023-04-16T19:47:23.655Z,51.40
2023-04-16T19:50:27.212Z,51.21
2023-04-16T19:53:35.000Z,51.44
2023-04-16T19:56:37.957Z,51.12
2023-04-16T19:59:42.832Z,51.15
2023-04-16T20:02:46.472Z,50.99
2023-04-16T20:05:50.241Z,50.67
2023-04-16T20:08:53.658Z,50.77
2023-04-16T20:11:58.316Z,50.72
2023-04-16T20:15:01.576Z,49.99
2023-04-16T20:18:06.501Z,49.92
2023-04-16T20:21:10.664Z,49.69
2023-04-16T20:24:15.991Z,50.34
2023-04-16T20:27:20.472Z,50.62
2023-04-16T20:30:28.791Z,50.18
2023-04-16T20:33:32.169Z,50.19
2023-04-16T20:36:36.265Z,50.10
2023-04-16T20:39:40.241Z,49.79
2023-04-16T20:42:46.311Z,50.35
2023-04-16T20:45:50.153Z,49.75
2023-04-16T20:48:53.258Z,49.48
2023-04-16T20:51:56.321Z,49.58
2023-04-16T20:54:59.021Z,49.89
2023-04-16T20:58:02.046Z,49.57
2023-04-16T21:01:06.139Z,49.70
2023-04-16T21:04:09.014Z,50.24
2023-04-16T21:07:11.789Z,49.68
2023-04-16T21:10:20.252Z,49.92
2023-04-16T21:13:23.164Z,49.76
2023-04-16T21:16:26.847Z,50.49
2023-04-16T21:19:29.633Z,49.79
2023-04-16T21:22:32.751Z,49.67
2023-04-16T21:25:35.534Z,49.54
2023-04-16T21:28:38.341Z,49.45
2023-04-16T21:31:42.900Z,49.36
2023-04-16T21:34:45.739Z,49.21
2023-04-16T21:37:48.875Z,49.68
2023-04-16T21:40:54.109Z,49.92
2023-04-16T21:43:56.671Z,49.84
2023-04-16T21:47:00.666Z,50.45
2023-04-16T21:50:03.764Z,51.23
2023-04-16T21:53:06.738Z,51.28
2023-04-16T21:56:09.540Z,51.16
2023-04-16T21:59:12.344Z,51.28
2023-04-16T22:02:15.217Z,51.59
2023-04-16T22:05:18.082Z,51.94
2023-04-16T22:08:24.889Z,52.26
2023-04-16T22:11:27.872Z,52.19
2023-04-16T22:14:31.982Z,52.06
2023-04-16T22:17:34.914Z,52.29
2023-04-16T22:20:39.221Z,52.11
2023-04-16T22:23:42.081Z,52.14
2023-04-16T22:26:44.714Z,51.44
2023-04-16T22:29:47.416Z,51.63
2023-04-16T22:32:50.304Z,51.44
2023-04-16T22:35:53.741Z,51.01
2023-04-16T22:38:56.538Z,51.14
2023-04-16T22:41:59.649Z,51.40
2023-04-16T22:45:02.615Z,50.83
2023-04-16T22:48:05.669Z,51.21
2023-04-16T22:51:10.715Z,51.37
2023-04-16T22:54:14.693Z,51.31
2023-04-16T22:57:21.140Z,50.91
2023-04-16T23:00:25.096Z,50.44
2023-04-16T23:03:28.335Z,50.90
2023-04-16T23:06:31.644Z,50.97
2023-04-16T23:09:34.458Z,51.02
2023-04-16T23:12:40.254Z,50.67
2023-04-16T23:15:43.852Z,50.51
2023-04-16T23:18:46.773Z,50.86
2023-04-16T23:21:49.364Z,50.60
2023-04-16T23:24:52.052Z,50.59
2023-04-16T23:27:54.727Z,50.60
2023-04-16T23:30:57.546Z,50.63
2023-04-16T23:34:00.183Z,50.62
2023-04-16T23:37:02.895Z,51.07
2023-04-16T23:40:06.708Z,50.80
2023-04-16T23:43:09.383Z,50.60
2023-04-16T23:46:12.990Z,50.93
2023-04-16T23:49:15.655Z,51.08
2023-04-16T23:52:18.424Z,50.81
2023-04-16T23:55:21.126Z,50.79
2023-04-16T23:58:24.358Z,51.15
